sensor_id;sensor_type;location;lat;lon;timestamp;temperature;humidity
26035;DHT22;13809;48.632;11.576;2023-02-12T00:04:55;8.70;35.70
26035;DHT22;13809;48.632;11.576;2023-02-12T00:09:58;8.70;36.00
26035;DHT22;13809;48.632;11.576;2023-02-12T00:15:02;8.70;36.00
26035;DHT22;13809;48.632;11.576;2023-02-12T00:20:07;8.70;36.10
26035;DHT22;13809;48.632;11.576;2023-02-12T00:25:11;8.70;36.60
26035;DHT22;13809;48.632;11.576;2023-02-12T00:30:15;8.70;36.50
26035;DHT22;13809;48.632;11.576;2023-02-12T00:35:20;8.70;36.60
26035;DHT22;13809;48.632;11.576;2023-02-12T00:40:23;8.60;37.00
26035;DHT22;13809;48.632;11.576;2023-02-12T00:45:27;8.60;36.80
26035;DHT22;13809;48.632;11.576;2023-02-12T00:50:31;8.60;36.90
26035;DHT22;13809;48.632;11.576;2023-02-12T00:55:34;8.50;37.30
26035;DHT22;13809;48.632;11.576;2023-02-12T01:00:38;8.50;37.20
26035;DHT22;13809;48.632;11.576;2023-02-12T01:05:43;8.50;37.40
26035;DHT22;13809;48.632;11.576;2023-02-12T01:10:53;8.40;37.90
26035;DHT22;13809;48.632;11.576;2023-02-12T01:16:01;8.30;38.80
26035;DHT22;13809;48.632;11.576;2023-02-12T01:21:13;8.20;38.60
26035;DHT22;13809;48.632;11.576;2023-02-12T01:26:18;8.20;39.20
26035;DHT22;13809;48.632;11.576;2023-02-12T01:31:24;8.20;38.10
26035;DHT22;13809;48.632;11.576;2023-02-12T01:36:30;8.20;38.30
26035;DHT22;13809;48.632;11.576;2023-02-12T01:41:35;8.20;38.50
26035;DHT22;13809;48.632;11.576;2023-02-12T01:46:38;8.10;38.40
26035;DHT22;13809;48.632;11.576;2023-02-12T01:51:45;8.10;38.30
26035;DHT22;13809;48.632;11.576;2023-02-12T01:56:49;8.10;39.30
26035;DHT22;13809;48.632;11.576;2023-02-12T02:01:53;8.10;38.40
26035;DHT22;13809;48.632;11.576;2023-02-12T02:07:00;8.10;38.70
26035;DHT22;13809;48.632;11.576;2023-02-12T02:12:04;8.10;39.30
26035;DHT22;13809;48.632;11.576;2023-02-12T02:17:43;8.10;38.50
26035;DHT22;13809;48.632;11.576;2023-02-12T02:22:55;8.10;39.80
26035;DHT22;13809;48.632;11.576;2023-02-12T02:28:18;8.10;39.30
26035;DHT22;13809;48.632;11.576;2023-02-12T02:33:37;8.10;39.30
26035;DHT22;13809;48.632;11.576;2023-02-12T02:38:44;8.10;39.30
26035;DHT22;13809;48.632;11.576;2023-02-12T02:43:51;8.10;39.30
26035;DHT22;13809;48.632;11.576;2023-02-12T02:48:58;8.10;39.10
26035;DHT22;13809;48.632;11.576;2023-02-12T02:54:04;8.10;39.30
26035;DHT22;13809;48.632;11.576;2023-02-12T02:59:13;8.20;39.40
26035;DHT22;13809;48.632;11.576;2023-02-12T03:04:22;8.20;39.40
26035;DHT22;13809;48.632;11.576;2023-02-12T03:09:31;8.20;39.40
26035;DHT22;13809;48.632;11.576;2023-02-12T03:14:38;8.20;39.40
26035;DHT22;13809;48.632;11.576;2023-02-12T03:19:46;8.20;39.40
26035;DHT22;13809;48.632;11.576;2023-02-12T03:24:56;8.20;39.40
26035;DHT22;13809;48.632;11.576;2023-02-12T03:30:03;8.20;39.40
26035;DHT22;13809;48.632;11.576;2023-02-12T03:35:13;8.20;39.40
26035;DHT22;13809;48.632;11.576;2023-02-12T03:40:19;8.20;39.80
26035;DHT22;13809;48.632;11.576;2023-02-12T03:45:34;8.10;39.30
26035;DHT22;13809;48.632;11.576;2023-02-12T03:50:48;8.10;39.90
26035;DHT22;13809;48.632;11.576;2023-02-12T03:55:56;8.10;40.00
26035;DHT22;13809;48.632;11.576;2023-02-12T04:01:02;8.10;39.30
26035;DHT22;13809;48.632;11.576;2023-02-12T04:06:18;8.10;39.30
26035;DHT22;13809;48.632;11.576;2023-02-12T04:11:27;8.00;40.50
26035;DHT22;13809;48.632;11.576;2023-02-12T04:16:36;8.00;39.80
26035;DHT22;13809;48.632;11.576;2023-02-12T04:21:54;8.00;39.60
26035;DHT22;13809;48.632;11.576;2023-02-12T04:27:09;8.00;40.40
26035;DHT22;13809;48.632;11.576;2023-02-12T04:32:17;7.90;40.10
26035;DHT22;13809;48.632;11.576;2023-02-12T04:37:29;7.90;39.60
26035;DHT22;13809;48.632;11.576;2023-02-12T04:42:40;7.80;40.50
26035;DHT22;13809;48.632;11.576;2023-02-12T04:47:44;7.80;40.70
26035;DHT22;13809;48.632;11.576;2023-02-12T04:52:49;7.70;39.60
26035;DHT22;13809;48.632;11.576;2023-02-12T04:57:52;7.70;40.10
26035;DHT22;13809;48.632;11.576;2023-02-12T05:02:55;7.70;39.80
26035;DHT22;13809;48.632;11.576;2023-02-12T05:08:00;7.70;40.00
26035;DHT22;13809;48.632;11.576;2023-02-12T05:13:03;7.70;40.40
26035;DHT22;13809;48.632;11.576;2023-02-12T05:18:06;7.70;40.00
26035;DHT22;13809;48.632;11.576;2023-02-12T05:23:10;7.70;40.10
26035;DHT22;13809;48.632;11.576;2023-02-12T05:28:13;7.80;40.60
26035;DHT22;13809;48.632;11.576;2023-02-12T05:33:17;7.80;40.20
26035;DHT22;13809;48.632;11.576;2023-02-12T05:38:21;7.90;40.10
26035;DHT22;13809;48.632;11.576;2023-02-12T05:43:24;8.00;40.50
26035;DHT22;13809;48.632;11.576;2023-02-12T05:48:28;8.00;40.00
26035;DHT22;13809;48.632;11.576;2023-02-12T05:53:33;8.00;40.10
26035;DHT22;13809;48.632;11.576;2023-02-12T05:58:36;8.00;40.30
26035;DHT22;13809;48.632;11.576;2023-02-12T06:03:39;8.00;40.00
26035;DHT22;13809;48.632;11.576;2023-02-12T06:08:46;8.10;40.00
26035;DHT22;13809;48.632;11.576;2023-02-12T06:13:50;8.10;40.80
26035;DHT22;13809;48.632;11.576;2023-02-12T06:18:54;8.10;40.00
26035;DHT22;13809;48.632;11.576;2023-02-12T06:23:58;8.10;40.20
26035;DHT22;13809;48.632;11.576;2023-02-12T06:29:02;8.20;40.40
26035;DHT22;13809;48.632;11.576;2023-02-12T06:34:07;8.10;40.00
26035;DHT22;13809;48.632;11.576;2023-02-12T06:39:13;8.20;40.20
26035;DHT22;13809;48.632;11.576;2023-02-12T06:44:16;8.20;40.40
26035;DHT22;13809;48.632;11.576;2023-02-12T06:49:19;8.20;40.00
26035;DHT22;13809;48.632;11.576;2023-02-12T06:54:24;8.20;40.00
26035;DHT22;13809;48.632;11.576;2023-02-12T06:59:27;8.20;40.20
26035;DHT22;13809;48.632;11.576;2023-02-12T07:04:30;8.30;40.00
26035;DHT22;13809;48.632;11.576;2023-02-12T07:09:34;8.20;40.60
26035;DHT22;13809;48.632;11.576;2023-02-12T07:14:38;8.20;40.40
26035;DHT22;13809;48.632;11.576;2023-02-12T07:19:41;8.20;40.10
26035;DHT22;13809;48.632;11.576;2023-02-12T07:24:45;8.10;40.10
26035;DHT22;13809;48.632;11.576;2023-02-12T07:29:48;8.00;40.60
26035;DHT22;13809;48.632;11.576;2023-02-12T07:34:52;8.00;40.40
26035;DHT22;13809;48.632;11.576;2023-02-12T07:39:57;7.90;40.50
26035;DHT22;13809;48.632;11.576;2023-02-12T07:45:00;7.90;41.10
26035;DHT22;13809;48.632;11.576;2023-02-12T07:50:05;7.90;40.80
26035;DHT22;13809;48.632;11.576;2023-02-12T07:55:10;8.00;41.20
26035;DHT22;13809;48.632;11.576;2023-02-12T08:00:14;8.00;41.30
26035;DHT22;13809;48.632;11.576;2023-02-12T08:05:18;8.00;41.10
26035;DHT22;13809;48.632;11.576;2023-02-12T08:10:22;8.10;41.10
26035;DHT22;13809;48.632;11.576;2023-02-12T08:15:25;8.00;41.40
26035;DHT22;13809;48.632;11.576;2023-02-12T08:20:28;8.10;41.30
26035;DHT22;13809;48.632;11.576;2023-02-12T08:25:33;8.10;41.40
26035;DHT22;13809;48.632;11.576;2023-02-12T08:30:36;8.10;41.80
26035;DHT22;13809;48.632;11.576;2023-02-12T08:35:39;8.20;41.50
26035;DHT22;13809;48.632;11.576;2023-02-12T08:40:44;8.20;41.50
26035;DHT22;13809;48.632;11.576;2023-02-12T08:45:47;8.20;42.00
26035;DHT22;13809;48.632;11.576;2023-02-12T08:50:51;8.30;41.70
26035;DHT22;13809;48.632;11.576;2023-02-12T08:55:55;8.40;41.80
26035;DHT22;13809;48.632;11.576;2023-02-12T09:00:58;8.40;42.20
26035;DHT22;13809;48.632;11.576;2023-02-12T09:06:02;8.50;41.90
26035;DHT22;13809;48.632;11.576;2023-02-12T09:11:08;8.60;42.00
26035;DHT22;13809;48.632;11.576;2023-02-12T09:16:13;8.70;42.40
26035;DHT22;13809;48.632;11.576;2023-02-12T09:21:17;8.70;41.80
26035;DHT22;13809;48.632;11.576;2023-02-12T09:26:23;8.80;42.00
26035;DHT22;13809;48.632;11.576;2023-02-12T09:31:28;8.90;42.30
26035;DHT22;13809;48.632;11.576;2023-02-12T09:36:32;8.90;42.00
26035;DHT22;13809;48.632;11.576;2023-02-12T09:41:49;9.00;41.90
26035;DHT22;13809;48.632;11.576;2023-02-12T09:47:02;9.00;43.20
26035;DHT22;13809;48.632;11.576;2023-02-12T09:52:12;9.10;42.40
26035;DHT22;13809;48.632;11.576;2023-02-12T09:57:22;9.20;43.00
26035;DHT22;13809;48.632;11.576;2023-02-12T10:02:26;9.20;42.60
26035;DHT22;13809;48.632;11.576;2023-02-12T10:07:44;9.30;41.90
26035;DHT22;13809;48.632;11.576;2023-02-12T10:12:59;9.30;43.20
26035;DHT22;13809;48.632;11.576;2023-02-12T10:18:32;9.30;42.50
26035;DHT22;13809;48.632;11.576;2023-02-12T10:24:08;9.30;43.00
26035;DHT22;13809;48.632;11.576;2023-02-12T10:29:17;9.30;43.10
26035;DHT22;13809;48.632;11.576;2023-02-12T10:34:25;9.30;42.40
26035;DHT22;13809;48.632;11.576;2023-02-12T10:39:32;9.30;42.30
26035;DHT22;13809;48.632;11.576;2023-02-12T10:44:39;9.30;42.40
26035;DHT22;13809;48.632;11.576;2023-02-12T10:49:42;9.40;42.20
26035;DHT22;13809;48.632;11.576;2023-02-12T10:54:46;9.30;41.70
26035;DHT22;13809;48.632;11.576;2023-02-12T10:59:52;9.30;42.00
26035;DHT22;13809;48.632;11.576;2023-02-12T11:04:58;9.40;42.40
26035;DHT22;13809;48.632;11.576;2023-02-12T11:10:19;9.40;42.20
26035;DHT22;13809;48.632;11.576;2023-02-12T11:15:26;9.40;43.20
26035;DHT22;13809;48.632;11.576;2023-02-12T11:20:35;9.50;42.50
26035;DHT22;13809;48.632;11.576;2023-02-12T11:25:54;9.50;42.40
26035;DHT22;13809;48.632;11.576;2023-02-12T11:31:01;9.50;43.10
26035;DHT22;13809;48.632;11.576;2023-02-12T11:36:12;9.60;42.50
26035;DHT22;13809;48.632;11.576;2023-02-12T11:41:23;9.60;43.00
26035;DHT22;13809;48.632;11.576;2023-02-12T11:46:30;9.70;42.90
26035;DHT22;13809;48.632;11.576;2023-02-12T11:51:34;9.70;42.40
26035;DHT22;13809;48.632;11.576;2023-02-12T11:56:43;9.80;42.20
26035;DHT22;13809;48.632;11.576;2023-02-12T12:01:50;9.80;42.70
26035;DHT22;13809;48.632;11.576;2023-02-12T12:06:57;9.80;42.50
26035;DHT22;13809;48.632;11.576;2023-02-12T12:12:09;9.80;42.20
26035;DHT22;13809;48.632;11.576;2023-02-12T12:17:16;9.80;42.50
26035;DHT22;13809;48.632;11.576;2023-02-12T12:22:45;9.80;42.20
26035;DHT22;13809;48.632;11.576;2023-02-12T12:27:59;9.80;42.60
26035;DHT22;13809;48.632;11.576;2023-02-12T12:33:15;9.70;42.60
26035;DHT22;13809;48.632;11.576;2023-02-12T12:38:26;9.70;42.60
26035;DHT22;13809;48.632;11.576;2023-02-12T12:43:42;9.70;42.90
26035;DHT22;13809;48.632;11.576;2023-02-12T12:49:14;9.70;43.00
26035;DHT22;13809;48.632;11.576;2023-02-12T12:54:26;9.80;43.10
26035;DHT22;13809;48.632;11.576;2023-02-12T12:59:52;9.90;42.70
26035;DHT22;13809;48.632;11.576;2023-02-12T13:05:23;9.90;43.10
26035;DHT22;13809;48.632;11.576;2023-02-12T13:10:38;10.00;42.20
26035;DHT22;13809;48.632;11.576;2023-02-12T13:15:49;10.00;41.60
26035;DHT22;13809;48.632;11.576;2023-02-12T13:21:01;10.10;41.80
26035;DHT22;13809;48.632;11.576;2023-02-12T13:26:10;10.10;41.80
26035;DHT22;13809;48.632;11.576;2023-02-12T13:31:19;10.20;42.00
26035;DHT22;13809;48.632;11.576;2023-02-12T13:36:36;10.30;41.80
26035;DHT22;13809;48.632;11.576;2023-02-12T13:41:44;10.40;41.60
26035;DHT22;13809;48.632;11.576;2023-02-12T13:46:54;10.40;41.60
26035;DHT22;13809;48.632;11.576;2023-02-12T13:52:02;10.50;41.60
26035;DHT22;13809;48.632;11.576;2023-02-12T13:57:10;10.50;41.40
26035;DHT22;13809;48.632;11.576;2023-02-12T14:07:51;10.60;41.90
26035;DHT22;13809;48.632;11.576;2023-02-12T14:12:58;10.60;41.10
26035;DHT22;13809;48.632;11.576;2023-02-12T14:18:33;10.70;41.00
26035;DHT22;13809;48.632;11.576;2023-02-12T14:23:38;10.70;41.60
26035;DHT22;13809;48.632;11.576;2023-02-12T14:28:48;10.70;41.20
26035;DHT22;13809;48.632;11.576;2023-02-12T14:45:43;10.90;41.60
26035;DHT22;13809;48.632;11.576;2023-02-12T14:50:46;11.00;40.80
26035;DHT22;13809;48.632;11.576;2023-02-12T14:55:54;11.00;40.80
26035;DHT22;13809;48.632;11.576;2023-02-12T15:01:00;11.00;41.10
26035;DHT22;13809;48.632;11.576;2023-02-12T15:06:11;11.10;41.20
26035;DHT22;13809;48.632;11.576;2023-02-12T15:11:25;11.10;41.40
26035;DHT22;13809;48.632;11.576;2023-02-12T15:16:40;11.10;41.50
26035;DHT22;13809;48.632;11.576;2023-02-12T15:21:47;11.20;41.60
26035;DHT22;13809;48.632;11.576;2023-02-12T15:26:53;11.20;41.00
26035;DHT22;13809;48.632;11.576;2023-02-12T15:31:58;11.20;41.00
26035;DHT22;13809;48.632;11.576;2023-02-12T15:37:03;11.30;41.60
26035;DHT22;13809;48.632;11.576;2023-02-12T15:42:24;11.30;41.10
26035;DHT22;13809;48.632;11.576;2023-02-12T15:47:27;11.30;41.10
26035;DHT22;13809;48.632;11.576;2023-02-12T15:52:32;11.20;41.00
26035;DHT22;13809;48.632;11.576;2023-02-12T15:57:38;11.20;41.00
26035;DHT22;13809;48.632;11.576;2023-02-12T16:02:41;11.10;40.90
26035;DHT22;13809;48.632;11.576;2023-02-12T16:07:45;11.10;40.60
26035;DHT22;13809;48.632;11.576;2023-02-12T16:12:50;11.00;40.50
26035;DHT22;13809;48.632;11.576;2023-02-12T16:17:53;10.90;40.70
26035;DHT22;13809;48.632;11.576;2023-02-12T16:22:58;10.90;40.20
26035;DHT22;13809;48.632;11.576;2023-02-12T16:28:04;10.80;40.30
26035;DHT22;13809;48.632;11.576;2023-02-12T16:33:30;10.70;40.50
26035;DHT22;13809;48.632;11.576;2023-02-12T16:38:39;10.70;40.50
26035;DHT22;13809;48.632;11.576;2023-02-12T16:43:44;10.70;40.50
26035;DHT22;13809;48.632;11.576;2023-02-12T16:48:50;10.60;40.50
26035;DHT22;13809;48.632;11.576;2023-02-12T16:53:55;10.60;40.30
26035;DHT22;13809;48.632;11.576;2023-02-12T16:59:00;10.50;39.80
26035;DHT22;13809;48.632;11.576;2023-02-12T17:04:05;10.40;39.80
26035;DHT22;13809;48.632;11.576;2023-02-12T17:09:09;10.40;39.70
26035;DHT22;13809;48.632;11.576;2023-02-12T17:14:15;10.30;39.50
26035;DHT22;13809;48.632;11.576;2023-02-12T17:19:18;10.20;39.10
26035;DHT22;13809;48.632;11.576;2023-02-12T17:24:24;10.10;39.00
26035;DHT22;13809;48.632;11.576;2023-02-12T17:29:29;9.90;40.00
26035;DHT22;13809;48.632;11.576;2023-02-12T17:34:32;9.80;39.70
26035;DHT22;13809;48.632;11.576;2023-02-12T17:39:49;9.70;39.70
26035;DHT22;13809;48.632;11.576;2023-02-12T17:44:54;9.60;39.50
26035;DHT22;13809;48.632;11.576;2023-02-12T17:49:57;9.40;39.50
26035;DHT22;13809;48.632;11.576;2023-02-12T17:55:01;9.40;39.80
26035;DHT22;13809;48.632;11.576;2023-02-12T18:00:09;9.30;39.90
26035;DHT22;13809;48.632;11.576;2023-02-12T18:05:13;9.20;39.70
26035;DHT22;13809;48.632;11.576;2023-02-12T18:10:17;9.10;39.70
26035;DHT22;13809;48.632;11.576;2023-02-12T18:15:21;9.00;40.10
26035;DHT22;13809;48.632;11.576;2023-02-12T18:20:24;8.90;39.90
26035;DHT22;13809;48.632;11.576;2023-02-12T18:25:27;8.80;39.70
26035;DHT22;13809;48.632;11.576;2023-02-12T18:30:32;8.70;39.50
26035;DHT22;13809;48.632;11.576;2023-02-12T18:35:37;8.70;39.40
26035;DHT22;13809;48.632;11.576;2023-02-12T18:40:42;8.50;39.30
26035;DHT22;13809;48.632;11.576;2023-02-12T18:45:47;8.40;39.50
26035;DHT22;13809;48.632;11.576;2023-02-12T18:50:50;8.40;39.60
26035;DHT22;13809;48.632;11.576;2023-02-12T18:55:56;8.30;39.50
26035;DHT22;13809;48.632;11.576;2023-02-12T19:01:10;8.20;39.40
26035;DHT22;13809;48.632;11.576;2023-02-12T19:06:13;8.10;39.30
26035;DHT22;13809;48.632;11.576;2023-02-12T19:11:16;8.00;39.30
26035;DHT22;13809;48.632;11.576;2023-02-12T19:16:22;8.00;39.30
26035;DHT22;13809;48.632;11.576;2023-02-12T19:21:25;7.90;39.20
26035;DHT22;13809;48.632;11.576;2023-02-12T19:26:29;7.80;39.00
26035;DHT22;13809;48.632;11.576;2023-02-12T19:31:36;7.70;39.00
26035;DHT22;13809;48.632;11.576;2023-02-12T19:36:40;7.60;38.90
26035;DHT22;13809;48.632;11.576;2023-02-12T19:41:43;7.60;38.90
26035;DHT22;13809;48.632;11.576;2023-02-12T19:46:49;7.50;38.80
26035;DHT22;13809;48.632;11.576;2023-02-12T19:51:53;7.40;38.80
26035;DHT22;13809;48.632;11.576;2023-02-12T19:56:56;7.30;39.50
26035;DHT22;13809;48.632;11.576;2023-02-12T20:02:00;7.30;38.80
26035;DHT22;13809;48.632;11.576;2023-02-12T20:07:04;7.20;38.60
26035;DHT22;13809;48.632;11.576;2023-02-12T20:12:09;7.20;38.90
26035;DHT22;13809;48.632;11.576;2023-02-12T20:17:13;7.10;38.80
26035;DHT22;13809;48.632;11.576;2023-02-12T20:22:16;7.10;38.90
26035;DHT22;13809;48.632;11.576;2023-02-12T20:27:19;7.10;38.80
26035;DHT22;13809;48.632;11.576;2023-02-12T20:32:24;7.00;38.90
26035;DHT22;13809;48.632;11.576;2023-02-12T20:37:27;6.90;38.80
26035;DHT22;13809;48.632;11.576;2023-02-12T20:42:30;6.90;38.90
26035;DHT22;13809;48.632;11.576;2023-02-12T20:47:35;6.90;38.90
26035;DHT22;13809;48.632;11.576;2023-02-12T20:52:38;6.80;38.90
26035;DHT22;13809;48.632;11.576;2023-02-12T20:57:42;6.80;39.00
26035;DHT22;13809;48.632;11.576;2023-02-12T21:02:46;6.70;38.90
26035;DHT22;13809;48.632;11.576;2023-02-12T21:07:49;6.60;38.70
26035;DHT22;13809;48.632;11.576;2023-02-12T21:12:53;6.60;38.80
26035;DHT22;13809;48.632;11.576;2023-02-12T21:17:57;6.50;38.70
26035;DHT22;13809;48.632;11.576;2023-02-12T21:23:00;6.50;38.80
26035;DHT22;13809;48.632;11.576;2023-02-12T21:28:03;6.40;38.80
26035;DHT22;13809;48.632;11.576;2023-02-12T21:33:08;6.30;38.60
26035;DHT22;13809;48.632;11.576;2023-02-12T21:38:11;6.20;38.70
26035;DHT22;13809;48.632;11.576;2023-02-12T21:43:14;6.10;38.70
26035;DHT22;13809;48.632;11.576;2023-02-12T21:48:19;6.10;38.80
26035;DHT22;13809;48.632;11.576;2023-02-12T21:53:22;6.00;38.80
26035;DHT22;13809;48.632;11.576;2023-02-12T21:58:25;5.90;38.70
26035;DHT22;13809;48.632;11.576;2023-02-12T22:03:30;5.90;38.80
26035;DHT22;13809;48.632;11.576;2023-02-12T22:08:33;5.80;39.00
26035;DHT22;13809;48.632;11.576;2023-02-12T22:13:36;5.70;39.00
26035;DHT22;13809;48.632;11.576;2023-02-12T22:18:42;5.70;39.10
26035;DHT22;13809;48.632;11.576;2023-02-12T22:23:46;5.60;39.20
26035;DHT22;13809;48.632;11.576;2023-02-12T22:28:50;5.60;39.10
26035;DHT22;13809;48.632;11.576;2023-02-12T22:33:57;5.60;39.20
26035;DHT22;13809;48.632;11.576;2023-02-12T22:39:00;5.60;39.40
26035;DHT22;13809;48.632;11.576;2023-02-12T22:44:04;5.60;39.50
26035;DHT22;13809;48.632;11.576;2023-02-12T22:49:08;5.50;39.60
26035;DHT22;13809;48.632;11.576;2023-02-12T22:54:13;5.50;40.00
26035;DHT22;13809;48.632;11.576;2023-02-12T22:59:16;5.60;40.20
26035;DHT22;13809;48.632;11.576;2023-02-12T23:04:21;5.60;40.30
26035;DHT22;13809;48.632;11.576;2023-02-12T23:09:24;5.60;40.70
26035;DHT22;13809;48.632;11.576;2023-02-12T23:14:27;5.70;40.70
26035;DHT22;13809;48.632;11.576;2023-02-12T23:19:32;5.70;40.70
26035;DHT22;13809;48.632;11.576;2023-02-12T23:24:35;5.70;41.00
26035;DHT22;13809;48.632;11.576;2023-02-12T23:29:38;5.70;40.80
26035;DHT22;13809;48.632;11.576;2023-02-12T23:34:43;5.70;40.80
26035;DHT22;13809;48.632;11.576;2023-02-12T23:39:46;5.70;41.10
26035;DHT22;13809;48.632;11.576;2023-02-12T23:44:49;5.70;40.90
26035;DHT22;13809;48.632;11.576;2023-02-12T23:49:54;5.70;41.00
26035;DHT22;13809;48.632;11.576;2023-02-12T23:54:57;5.60;41.20
